sensor_id;sensor_type;location;lat;lon;timestamp;P1;durP1;ratioP1;P2;durP2;ratioP2
57249;SDS011;43102;52.014;-0.680;2023-04-24T00:00:00;13.20;;;10.60;;
57249;SDS011;43102;52.014;-0.680;2023-04-24T00:01:01;13.20;;;10.60;;
57249;SDS011;43102;52.014;-0.680;2023-04-24T00:02:00;13.20;;;10.60;;
57249;SDS011;43102;52.014;-0.680;2023-04-24T00:03:01;13.20;;;10.60;;
57249;SDS011;43102;52.014;-0.680;2023-04-24T00:04:01;13.20;;;10.60;;
57249;SDS011;43102;52.014;-0.680;2023-04-24T00:05:02;13.20;;;10.60;;
57249;SDS011;43102;52.014;-0.680;2023-04-24T00:06:00;13.20;;;10.60;;
57249;SDS011;43102;52.014;-0.680;2023-04-24T00:07:00;13.20;;;10.60;;
57249;SDS011;43102;52.014;-0.680;2023-04-24T00:08:00;13.20;;;10.60;;
57249;SDS011;43102;52.014;-0.680;2023-04-24T00:09:00;13.20;;;10.60;;
57249;SDS011;43102;52.014;-0.680;2023-04-24T00:10:00;13.20;;;10.60;;
57249;SDS011;43102;52.014;-0.680;2023-04-24T00:11:00;13.20;;;10.60;;
57249;SDS011;43102;52.014;-0.680;2023-04-24T00:12:02;13.20;;;10.60;;
57249;SDS011;43102;52.014;-0.680;2023-04-24T00:13:00;13.20;;;10.60;;
57249;SDS011;43102;52.014;-0.680;2023-04-24T00:14:00;13.20;;;10.60;;
57249;SDS011;43102;52.014;-0.680;2023-04-24T00:15:00;13.20;;;10.60;;
57249;SDS011;43102;52.014;-0.680;2023-04-24T00:16:00;13.20;;;10.60;;
57249;SDS011;43102;52.014;-0.680;2023-04-24T00:17:02;13.20;;;10.60;;
57249;SDS011;43102;52.014;-0.680;2023-04-24T00:18:01;13.20;;;10.60;;
57249;SDS011;43102;52.014;-0.680;2023-04-24T00:19:00;13.20;;;10.60;;
57249;SDS011;43102;52.014;-0.680;2023-04-24T00:20:01;11.40;;;9.00;;
57249;SDS011;43102;52.014;-0.680;2023-04-24T00:21:00;11.40;;;9.00;;
57249;SDS011;43102;52.014;-0.680;2023-04-24T00:22:00;11.40;;;9.00;;
57249;SDS011;43102;52.014;-0.680;2023-04-24T00:23:00;11.40;;;9.00;;
57249;SDS011;43102;52.014;-0.680;2023-04-24T00:24:00;11.40;;;9.00;;
57249;SDS011;43102;52.014;-0.680;2023-04-24T00:25:00;11.40;;;9.00;;
57249;SDS011;43102;52.014;-0.680;2023-04-24T00:26:00;11.40;;;9.00;;
57249;SDS011;43102;52.014;-0.680;2023-04-24T00:27:00;11.40;;;9.00;;
57249;SDS011;43102;52.014;-0.680;2023-04-24T00:28:00;11.40;;;9.00;;
57249;SDS011;43102;52.014;-0.680;2023-04-24T00:29:00;11.40;;;9.00;;
57249;SDS011;43102;52.014;-0.680;2023-04-24T00:30:00;11.40;;;9.00;;
57249;SDS011;43102;52.014;-0.680;2023-04-24T00:31:00;11.40;;;9.00;;
57249;SDS011;43102;52.014;-0.680;2023-04-24T00:32:00;11.40;;;9.00;;
57249;SDS011;43102;52.014;-0.680;2023-04-24T00:33:00;11.40;;;9.00;;
57249;SDS011;43102;52.014;-0.680;2023-04-24T00:34:01;11.40;;;9.00;;
57249;SDS011;43102;52.014;-0.680;2023-04-24T00:35:00;11.40;;;9.00;;
57249;SDS011;43102;52.014;-0.680;2023-04-24T00:36:00;11.40;;;9.00;;
57249;SDS011;43102;52.014;-0.680;2023-04-24T00:37:00;11.40;;;9.00;;
57249;SDS011;43102;52.014;-0.680;2023-04-24T00:38:00;11.40;;;9.00;;
57249;SDS011;43102;52.014;-0.680;2023-04-24T00:39:00;11.40;;;9.00;;
57249;SDS011;43102;52.014;-0.680;2023-04-24T00:40:00;11.40;;;9.00;;
57249;SDS011;43102;52.014;-0.680;2023-04-24T00:41:00;11.40;;;9.00;;
57249;SDS011;43102;52.014;-0.680;2023-04-24T00:42:01;11.40;;;9.00;;
57249;SDS011;43102;52.014;-0.680;2023-04-24T00:43:00;11.40;;;9.00;;
57249;SDS011;43102;52.014;-0.680;2023-04-24T00:44:00;11.40;;;9.00;;
57249;SDS011;43102;52.014;-0.680;2023-04-24T00:45:00;11.40;;;9.00;;
57249;SDS011;43102;52.014;-0.680;2023-04-24T00:46:01;11.40;;;9.00;;
57249;SDS011;43102;52.014;-0.680;2023-04-24T00:47:01;11.40;;;9.00;;
57249;SDS011;43102;52.014;-0.680;2023-04-24T00:48:01;11.40;;;9.00;;
57249;SDS011;43102;52.014;-0.680;2023-04-24T00:49:00;11.40;;;9.00;;
57249;SDS011;43102;52.014;-0.680;2023-04-24T00:50:03;12.80;;;9.10;;
57249;SDS011;43102;52.014;-0.680;2023-04-24T00:51:00;12.80;;;9.10;;
57249;SDS011;43102;52.014;-0.680;2023-04-24T00:52:00;12.80;;;9.10;;
57249;SDS011;43102;52.014;-0.680;2023-04-24T00:53:00;12.80;;;9.10;;
57249;SDS011;43102;52.014;-0.680;2023-04-24T00:54:00;12.80;;;9.10;;
57249;SDS011;43102;52.014;-0.680;2023-04-24T00:55:00;12.80;;;9.10;;
57249;SDS011;43102;52.014;-0.680;2023-04-24T00:56:01;12.80;;;9.10;;
57249;SDS011;43102;52.014;-0.680;2023-04-24T00:57:02;12.80;;;9.10;;
57249;SDS011;43102;52.014;-0.680;2023-04-24T00:58:00;12.80;;;9.10;;
57249;SDS011;43102;52.014;-0.680;2023-04-24T00:59:00;12.80;;;9.10;;
57249;SDS011;43102;52.014;-0.680;2023-04-24T01:00:00;12.80;;;9.10;;
57249;SDS011;43102;52.014;-0.680;2023-04-24T01:01:02;12.80;;;9.10;;
57249;SDS011;43102;52.014;-0.680;2023-04-24T01:02:00;12.80;;;9.10;;
57249;SDS011;43102;52.014;-0.680;2023-04-24T01:03:01;12.80;;;9.10;;
57249;SDS011;43102;52.014;-0.680;2023-04-24T01:04:01;12.80;;;9.10;;
57249;SDS011;43102;52.014;-0.680;2023-04-24T01:05:01;12.80;;;9.10;;
57249;SDS011;43102;52.014;-0.680;2023-04-24T01:06:00;12.80;;;9.10;;
57249;SDS011;43102;52.014;-0.680;2023-04-24T01:07:00;12.80;;;9.10;;
57249;SDS011;43102;52.014;-0.680;2023-04-24T01:08:01;12.80;;;9.10;;
57249;SDS011;43102;52.014;-0.680;2023-04-24T01:09:00;12.80;;;9.10;;
57249;SDS011;43102;52.014;-0.680;2023-04-24T01:10:00;12.80;;;9.10;;
57249;SDS011;43102;52.014;-0.680;2023-04-24T01:11:03;12.80;;;9.10;;
57249;SDS011;43102;52.014;-0.680;2023-04-24T01:12:01;12.80;;;9.10;;
57249;SDS011;43102;52.014;-0.680;2023-04-24T01:13:00;12.80;;;9.10;;
57249;SDS011;43102;52.014;-0.680;2023-04-24T01:14:01;12.80;;;9.10;;
57249;SDS011;43102;52.014;-0.680;2023-04-24T01:15:01;12.80;;;9.10;;
57249;SDS011;43102;52.014;-0.680;2023-04-24T01:16:01;12.80;;;9.10;;
57249;SDS011;43102;52.014;-0.680;2023-04-24T01:17:00;12.80;;;9.10;;
57249;SDS011;43102;52.014;-0.680;2023-04-24T01:18:00;12.80;;;9.10;;
57249;SDS011;43102;52.014;-0.680;2023-04-24T01:19:00;12.80;;;9.10;;
57249;SDS011;43102;52.014;-0.680;2023-04-24T01:20:00;11.00;;;8.30;;
57249;SDS011;43102;52.014;-0.680;2023-04-24T01:21:04;11.00;;;8.30;;
57249;SDS011;43102;52.014;-0.680;2023-04-24T01:22:02;11.00;;;8.30;;
57249;SDS011;43102;52.014;-0.680;2023-04-24T01:23:01;11.00;;;8.30;;
57249;SDS011;43102;52.014;-0.680;2023-04-24T01:24:00;11.00;;;8.30;;
57249;SDS011;43102;52.014;-0.680;2023-04-24T01:25:01;11.00;;;8.30;;
57249;SDS011;43102;52.014;-0.680;2023-04-24T01:26:00;11.00;;;8.30;;
57249;SDS011;43102;52.014;-0.680;2023-04-24T01:27:01;11.00;;;8.30;;
57249;SDS011;43102;52.014;-0.680;2023-04-24T01:28:00;11.00;;;8.30;;
57249;SDS011;43102;52.014;-0.680;2023-04-24T01:29:00;11.00;;;8.30;;
57249;SDS011;43102;52.014;-0.680;2023-04-24T01:30:00;11.00;;;8.30;;
57249;SDS011;43102;52.014;-0.680;2023-04-24T01:31:00;11.00;;;8.30;;
57249;SDS011;43102;52.014;-0.680;2023-04-24T01:32:00;11.00;;;8.30;;
57249;SDS011;43102;52.014;-0.680;2023-04-24T01:33:00;11.00;;;8.30;;
57249;SDS011;43102;52.014;-0.680;2023-04-24T01:34:00;11.00;;;8.30;;
57249;SDS011;43102;52.014;-0.680;2023-04-24T01:35:01;11.00;;;8.30;;
57249;SDS011;43102;52.014;-0.680;2023-04-24T01:36:00;11.00;;;8.30;;
57249;SDS011;43102;52.014;-0.680;2023-04-24T01:37:00;11.00;;;8.30;;
57249;SDS011;43102;52.014;-0.680;2023-04-24T01:38:00;11.00;;;8.30;;
57249;SDS011;43102;52.014;-0.680;2023-04-24T01:39:00;11.00;;;8.30;;
57249;SDS011;43102;52.014;-0.680;2023-04-24T01:40:00;11.00;;;8.30;;
57249;SDS011;43102;52.014;-0.680;2023-04-24T01:41:00;11.00;;;8.30;;
57249;SDS011;43102;52.014;-0.680;2023-04-24T01:42:02;11.00;;;8.30;;
57249;SDS011;43102;52.014;-0.680;2023-04-24T01:43:00;11.00;;;8.30;;
57249;SDS011;43102;52.014;-0.680;2023-04-24T01:44:00;11.00;;;8.30;;
57249;SDS011;43102;52.014;-0.680;2023-04-24T01:45:02;11.00;;;8.30;;
57249;SDS011;43102;52.014;-0.680;2023-04-24T01:46:00;11.00;;;8.30;;
57249;SDS011;43102;52.014;-0.680;2023-04-24T01:47:01;11.00;;;8.30;;
57249;SDS011;43102;52.014;-0.680;2023-04-24T01:48:00;11.00;;;8.30;;
57249;SDS011;43102;52.014;-0.680;2023-04-24T01:49:01;11.00;;;8.30;;
57249;SDS011;43102;52.014;-0.680;2023-04-24T01:50:00;11.00;;;8.30;;
57249;SDS011;43102;52.014;-0.680;2023-04-24T01:51:00;13.70;;;9.90;;
57249;SDS011;43102;52.014;-0.680;2023-04-24T01:52:00;13.70;;;9.90;;
57249;SDS011;43102;52.014;-0.680;2023-04-24T01:53:00;13.70;;;9.90;;
57249;SDS011;43102;52.014;-0.680;2023-04-24T01:54:00;13.70;;;9.90;;
57249;SDS011;43102;52.014;-0.680;2023-04-24T01:55:00;13.70;;;9.90;;
57249;SDS011;43102;52.014;-0.680;2023-04-24T01:56:01;13.70;;;9.90;;
57249;SDS011;43102;52.014;-0.680;2023-04-24T01:57:02;13.70;;;9.90;;
57249;SDS011;43102;52.014;-0.680;2023-04-24T01:58:01;13.70;;;9.90;;
57249;SDS011;43102;52.014;-0.680;2023-04-24T01:59:02;13.70;;;9.90;;
57249;SDS011;43102;52.014;-0.680;2023-04-24T02:00:00;13.70;;;9.90;;
57249;SDS011;43102;52.014;-0.680;2023-04-24T02:01:01;13.70;;;9.90;;
57249;SDS011;43102;52.014;-0.680;2023-04-24T02:02:00;13.70;;;9.90;;
57249;SDS011;43102;52.014;-0.680;2023-04-24T02:03:01;13.70;;;9.90;;
57249;SDS011;43102;52.014;-0.680;2023-04-24T02:04:00;13.70;;;9.90;;
57249;SDS011;43102;52.014;-0.680;2023-04-24T02:05:00;13.70;;;9.90;;
57249;SDS011;43102;52.014;-0.680;2023-04-24T02:06:00;13.70;;;9.90;;
57249;SDS011;43102;52.014;-0.680;2023-04-24T02:07:00;13.70;;;9.90;;
57249;SDS011;43102;52.014;-0.680;2023-04-24T02:08:00;13.70;;;9.90;;
57249;SDS011;43102;52.014;-0.680;2023-04-24T02:09:00;13.70;;;9.90;;
57249;SDS011;43102;52.014;-0.680;2023-04-24T02:10:00;13.70;;;9.90;;
57249;SDS011;43102;52.014;-0.680;2023-04-24T02:11:01;13.70;;;9.90;;
57249;SDS011;43102;52.014;-0.680;2023-04-24T02:12:00;13.70;;;9.90;;
57249;SDS011;43102;52.014;-0.680;2023-04-24T02:13:00;13.70;;;9.90;;
57249;SDS011;43102;52.014;-0.680;2023-04-24T02:14:00;13.70;;;9.90;;
57249;SDS011;43102;52.014;-0.680;2023-04-24T02:15:00;13.70;;;9.90;;
57249;SDS011;43102;52.014;-0.680;2023-04-24T02:16:00;13.70;;;9.90;;
57249;SDS011;43102;52.014;-0.680;2023-04-24T02:17:00;13.70;;;9.90;;
57249;SDS011;43102;52.014;-0.680;2023-04-24T02:18:00;13.70;;;9.90;;
57249;SDS011;43102;52.014;-0.680;2023-04-24T02:19:00;13.70;;;9.90;;
57249;SDS011;43102;52.014;-0.680;2023-04-24T02:20:00;13.70;;;9.90;;
57249;SDS011;43102;52.014;-0.680;2023-04-24T02:21:00;10.40;;;5.90;;
57249;SDS011;43102;52.014;-0.680;2023-04-24T02:22:00;10.40;;;5.90;;
57249;SDS011;43102;52.014;-0.680;2023-04-24T02:23:00;10.40;;;5.90;;
57249;SDS011;43102;52.014;-0.680;2023-04-24T02:24:00;10.40;;;5.90;;
57249;SDS011;43102;52.014;-0.680;2023-04-24T02:25:01;10.40;;;5.90;;
57249;SDS011;43102;52.014;-0.680;2023-04-24T02:26:00;10.40;;;5.90;;
57249;SDS011;43102;52.014;-0.680;2023-04-24T02:27:01;10.40;;;5.90;;
57249;SDS011;43102;52.014;-0.680;2023-04-24T02:28:00;10.40;;;5.90;;
57249;SDS011;43102;52.014;-0.680;2023-04-24T02:29:00;10.40;;;5.90;;
57249;SDS011;43102;52.014;-0.680;2023-04-24T02:30:00;10.40;;;5.90;;
57249;SDS011;43102;52.014;-0.680;2023-04-24T02:31:00;10.40;;;5.90;;
57249;SDS011;43102;52.014;-0.680;2023-04-24T02:32:00;10.40;;;5.90;;
57249;SDS011;43102;52.014;-0.680;2023-04-24T02:33:00;10.40;;;5.90;;
57249;SDS011;43102;52.014;-0.680;2023-04-24T02:34:00;10.40;;;5.90;;
57249;SDS011;43102;52.014;-0.680;2023-04-24T02:35:01;10.40;;;5.90;;
57249;SDS011;43102;52.014;-0.680;2023-04-24T02:36:00;10.40;;;5.90;;
57249;SDS011;43102;52.014;-0.680;2023-04-24T02:37:00;10.40;;;5.90;;
57249;SDS011;43102;52.014;-0.680;2023-04-24T02:38:00;10.40;;;5.90;;
57249;SDS011;43102;52.014;-0.680;2023-04-24T02:39:01;10.40;;;5.90;;
57249;SDS011;43102;52.014;-0.680;2023-04-24T02:40:00;10.40;;;5.90;;
57249;SDS011;43102;52.014;-0.680;2023-04-24T02:41:01;10.40;;;5.90;;
57249;SDS011;43102;52.014;-0.680;2023-04-24T02:42:01;10.40;;;5.90;;
57249;SDS011;43102;52.014;-0.680;2023-04-24T02:43:00;10.40;;;5.90;;
57249;SDS011;43102;52.014;-0.680;2023-04-24T02:44:00;10.40;;;5.90;;
57249;SDS011;43102;52.014;-0.680;2023-04-24T02:45:00;10.40;;;5.90;;
57249;SDS011;43102;52.014;-0.680;2023-04-24T02:46:01;10.40;;;5.90;;
57249;SDS011;43102;52.014;-0.680;2023-04-24T02:47:00;10.40;;;5.90;;
57249;SDS011;43102;52.014;-0.680;2023-04-24T02:48:00;10.40;;;5.90;;
57249;SDS011;43102;52.014;-0.680;2023-04-24T02:49:00;10.40;;;5.90;;
57249;SDS011;43102;52.014;-0.680;2023-04-24T02:50:00;10.40;;;5.90;;
57249;SDS011;43102;52.014;-0.680;2023-04-24T02:51:00;13.40;;;7.60;;
57249;SDS011;43102;52.014;-0.680;2023-04-24T02:52:00;13.40;;;7.60;;
57249;SDS011;43102;52.014;-0.680;2023-04-24T02:53:00;13.40;;;7.60;;
57249;SDS011;43102;52.014;-0.680;2023-04-24T02:54:00;13.40;;;7.60;;
57249;SDS011;43102;52.014;-0.680;2023-04-24T02:55:00;13.40;;;7.60;;
57249;SDS011;43102;52.014;-0.680;2023-04-24T02:56:00;13.40;;;7.60;;
57249;SDS011;43102;52.014;-0.680;2023-04-24T02:57:01;13.40;;;7.60;;
57249;SDS011;43102;52.014;-0.680;2023-04-24T02:58:00;13.40;;;7.60;;
57249;SDS011;43102;52.014;-0.680;2023-04-24T02:59:00;13.40;;;7.60;;
57249;SDS011;43102;52.014;-0.680;2023-04-24T03:00:00;13.40;;;7.60;;
57249;SDS011;43102;52.014;-0.680;2023-04-24T03:01:00;13.40;;;7.60;;
57249;SDS011;43102;52.014;-0.680;2023-04-24T03:02:00;13.40;;;7.60;;
57249;SDS011;43102;52.014;-0.680;2023-04-24T03:03:00;13.40;;;7.60;;
57249;SDS011;43102;52.014;-0.680;2023-04-24T03:04:01;13.40;;;7.60;;
57249;SDS011;43102;52.014;-0.680;2023-04-24T03:05:00;13.40;;;7.60;;
57249;SDS011;43102;52.014;-0.680;2023-04-24T03:06:00;13.40;;;7.60;;
57249;SDS011;43102;52.014;-0.680;2023-04-24T03:07:01;13.40;;;7.60;;
57249;SDS011;43102;52.014;-0.680;2023-04-24T03:08:00;13.40;;;7.60;;
57249;SDS011;43102;52.014;-0.680;2023-04-24T03:09:00;13.40;;;7.60;;
57249;SDS011;43102;52.014;-0.680;2023-04-24T03:10:00;13.40;;;7.60;;
57249;SDS011;43102;52.014;-0.680;2023-04-24T03:11:00;13.40;;;7.60;;
57249;SDS011;43102;52.014;-0.680;2023-04-24T03:12:00;13.40;;;7.60;;
57249;SDS011;43102;52.014;-0.680;2023-04-24T03:13:00;13.40;;;7.60;;
57249;SDS011;43102;52.014;-0.680;2023-04-24T03:14:00;13.40;;;7.60;;
57249;SDS011;43102;52.014;-0.680;2023-04-24T03:15:00;13.40;;;7.60;;
57249;SDS011;43102;52.014;-0.680;2023-04-24T03:16:00;13.40;;;7.60;;
57249;SDS011;43102;52.014;-0.680;2023-04-24T03:17:00;13.40;;;7.60;;
57249;SDS011;43102;52.014;-0.680;2023-04-24T03:18:00;13.40;;;7.60;;
57249;SDS011;43102;52.014;-0.680;2023-04-24T03:19:00;13.40;;;7.60;;
57249;SDS011;43102;52.014;-0.680;2023-04-24T03:20:00;13.40;;;7.60;;
57249;SDS011;43102;52.014;-0.680;2023-04-24T03:21:00;15.20;;;8.00;;
57249;SDS011;43102;52.014;-0.680;2023-04-24T03:22:02;15.20;;;8.00;;
57249;SDS011;43102;52.014;-0.680;2023-04-24T03:23:00;15.20;;;8.00;;
57249;SDS011;43102;52.014;-0.680;2023-04-24T03:24:00;15.20;;;8.00;;
57249;SDS011;43102;52.014;-0.680;2023-04-24T03:25:01;15.20;;;8.00;;
57249;SDS011;43102;52.014;-0.680;2023-04-24T03:26:00;15.20;;;8.00;;
57249;SDS011;43102;52.014;-0.680;2023-04-24T03:27:00;15.20;;;8.00;;
57249;SDS011;43102;52.014;-0.680;2023-04-24T03:28:00;15.20;;;8.00;;
57249;SDS011;43102;52.014;-0.680;2023-04-24T03:29:00;15.20;;;8.00;;
57249;SDS011;43102;52.014;-0.680;2023-04-24T03:30:00;15.20;;;8.00;;
57249;SDS011;43102;52.014;-0.680;2023-04-24T03:31:00;15.20;;;8.00;;
57249;SDS011;43102;52.014;-0.680;2023-04-24T03:32:00;15.20;;;8.00;;
57249;SDS011;43102;52.014;-0.680;2023-04-24T03:33:00;15.20;;;8.00;;
57249;SDS011;43102;52.014;-0.680;2023-04-24T03:34:00;15.20;;;8.00;;
57249;SDS011;43102;52.014;-0.680;2023-04-24T03:35:00;15.20;;;8.00;;
57249;SDS011;43102;52.014;-0.680;2023-04-24T03:36:00;15.20;;;8.00;;
57249;SDS011;43102;52.014;-0.680;2023-04-24T03:37:00;15.20;;;8.00;;
57249;SDS011;43102;52.014;-0.680;2023-04-24T03:38:00;15.20;;;8.00;;
57249;SDS011;43102;52.014;-0.680;2023-04-24T03:39:00;15.20;;;8.00;;
57249;SDS011;43102;52.014;-0.680;2023-04-24T03:40:01;15.20;;;8.00;;
57249;SDS011;43102;52.014;-0.680;2023-04-24T03:41:00;15.20;;;8.00;;
57249;SDS011;43102;52.014;-0.680;2023-04-24T03:42:01;15.20;;;8.00;;
57249;SDS011;43102;52.014;-0.680;2023-04-24T03:43:00;15.20;;;8.00;;
57249;SDS011;43102;52.014;-0.680;2023-04-24T03:44:00;15.20;;;8.00;;
57249;SDS011;43102;52.014;-0.680;2023-04-24T03:45:00;15.20;;;8.00;;
57249;SDS011;43102;52.014;-0.680;2023-04-24T03:46:00;15.20;;;8.00;;
57249;SDS011;43102;52.014;-0.680;2023-04-24T03:47:00;15.20;;;8.00;;
57249;SDS011;43102;52.014;-0.680;2023-04-24T03:48:00;15.20;;;8.00;;
57249;SDS011;43102;52.014;-0.680;2023-04-24T03:49:00;15.20;;;8.00;;
57249;SDS011;43102;52.014;-0.680;2023-04-24T03:50:00;15.20;;;8.00;;
57249;SDS011;43102;52.014;-0.680;2023-04-24T03:51:00;9.70;;;5.80;;
57249;SDS011;43102;52.014;-0.680;2023-04-24T03:52:00;9.70;;;5.80;;
57249;SDS011;43102;52.014;-0.680;2023-04-24T03:53:00;9.70;;;5.80;;
57249;SDS011;43102;52.014;-0.680;2023-04-24T03:54:00;9.70;;;5.80;;
57249;SDS011;43102;52.014;-0.680;2023-04-24T03:55:00;9.70;;;5.80;;
57249;SDS011;43102;52.014;-0.680;2023-04-24T03:56:00;9.70;;;5.80;;
57249;SDS011;43102;52.014;-0.680;2023-04-24T03:57:01;9.70;;;5.80;;
57249;SDS011;43102;52.014;-0.680;2023-04-24T03:58:00;9.70;;;5.80;;
57249;SDS011;43102;52.014;-0.680;2023-04-24T03:59:00;9.70;;;5.80;;
57249;SDS011;43102;52.014;-0.680;2023-04-24T04:00:01;9.70;;;5.80;;
57249;SDS011;43102;52.014;-0.680;2023-04-24T04:01:00;9.70;;;5.80;;
57249;SDS011;43102;52.014;-0.680;2023-04-24T04:02:00;9.70;;;5.80;;
57249;SDS011;43102;52.014;-0.680;2023-04-24T04:03:01;9.70;;;5.80;;
57249;SDS011;43102;52.014;-0.680;2023-04-24T04:04:00;9.70;;;5.80;;
57249;SDS011;43102;52.014;-0.680;2023-04-24T04:05:00;9.70;;;5.80;;
57249;SDS011;43102;52.014;-0.680;2023-04-24T04:06:00;9.70;;;5.80;;
57249;SDS011;43102;52.014;-0.680;2023-04-24T04:07:02;9.70;;;5.80;;
57249;SDS011;43102;52.014;-0.680;2023-04-24T04:08:00;9.70;;;5.80;;
57249;SDS011;43102;52.014;-0.680;2023-04-24T04:09:00;9.70;;;5.80;;
57249;SDS011;43102;52.014;-0.680;2023-04-24T04:10:00;9.70;;;5.80;;
57249;SDS011;43102;52.014;-0.680;2023-04-24T04:11:00;9.70;;;5.80;;
57249;SDS011;43102;52.014;-0.680;2023-04-24T04:12:00;9.70;;;5.80;;
57249;SDS011;43102;52.014;-0.680;2023-04-24T04:13:00;9.70;;;5.80;;
57249;SDS011;43102;52.014;-0.680;2023-04-24T04:14:00;9.70;;;5.80;;
57249;SDS011;43102;52.014;-0.680;2023-04-24T04:15:00;9.70;;;5.80;;
57249;SDS011;43102;52.014;-0.680;2023-04-24T04:16:00;9.70;;;5.80;;
57249;SDS011;43102;52.014;-0.680;2023-04-24T04:17:00;9.70;;;5.80;;
57249;SDS011;43102;52.014;-0.680;2023-04-24T04:18:00;9.70;;;5.80;;
57249;SDS011;43102;52.014;-0.680;2023-04-24T04:19:00;9.70;;;5.80;;
57249;SDS011;43102;52.014;-0.680;2023-04-24T04:20:00;9.70;;;5.80;;
57249;SDS011;43102;52.014;-0.680;2023-04-24T04:21:01;10.50;;;4.40;;
57249;SDS011;43102;52.014;-0.680;2023-04-24T04:22:00;10.50;;;4.40;;
57249;SDS011;43102;52.014;-0.680;2023-04-24T04:23:00;10.50;;;4.40;;
57249;SDS011;43102;52.014;-0.680;2023-04-24T04:24:00;10.50;;;4.40;;
57249;SDS011;43102;52.014;-0.680;2023-04-24T04:25:00;10.50;;;4.40;;
57249;SDS011;43102;52.014;-0.680;2023-04-24T04:26:01;10.50;;;4.40;;
57249;SDS011;43102;52.014;-0.680;2023-04-24T04:27:01;10.50;;;4.40;;
57249;SDS011;43102;52.014;-0.680;2023-04-24T04:28:01;10.50;;;4.40;;
57249;SDS011;43102;52.014;-0.680;2023-04-24T04:29:00;10.50;;;4.40;;
57249;SDS011;43102;52.014;-0.680;2023-04-24T04:30:04;10.50;;;4.40;;
57249;SDS011;43102;52.014;-0.680;2023-04-24T04:31:00;10.50;;;4.40;;
57249;SDS011;43102;52.014;-0.680;2023-04-24T04:32:01;10.50;;;4.40;;
57249;SDS011;43102;52.014;-0.680;2023-04-24T04:33:01;10.50;;;4.40;;
57249;SDS011;43102;52.014;-0.680;2023-04-24T04:34:01;10.50;;;4.40;;
57249;SDS011;43102;52.014;-0.680;2023-04-24T04:35:03;10.50;;;4.40;;
57249;SDS011;43102;52.014;-0.680;2023-04-24T04:36:01;10.50;;;4.40;;
57249;SDS011;43102;52.014;-0.680;2023-04-24T04:37:00;10.50;;;4.40;;
57249;SDS011;43102;52.014;-0.680;2023-04-24T04:38:00;10.50;;;4.40;;
57249;SDS011;43102;52.014;-0.680;2023-04-24T04:39:00;10.50;;;4.40;;
57249;SDS011;43102;52.014;-0.680;2023-04-24T04:40:01;10.50;;;4.40;;
57249;SDS011;43102;52.014;-0.680;2023-04-24T04:41:00;10.50;;;4.40;;
57249;SDS011;43102;52.014;-0.680;2023-04-24T04:42:00;10.50;;;4.40;;
57249;SDS011;43102;52.014;-0.680;2023-04-24T04:43:00;10.50;;;4.40;;
57249;SDS011;43102;52.014;-0.680;2023-04-24T04:44:01;10.50;;;4.40;;
57249;SDS011;43102;52.014;-0.680;2023-04-24T04:45:00;10.50;;;4.40;;
57249;SDS011;43102;52.014;-0.680;2023-04-24T04:46:00;10.50;;;4.40;;
57249;SDS011;43102;52.014;-0.680;2023-04-24T04:47:00;10.50;;;4.40;;
57249;SDS011;43102;52.014;-0.680;2023-04-24T04:48:01;10.50;;;4.40;;
57249;SDS011;43102;52.014;-0.680;2023-04-24T04:49:01;10.50;;;4.40;;
57249;SDS011;43102;52.014;-0.680;2023-04-24T04:50:00;10.50;;;4.40;;
57249;SDS011;43102;52.014;-0.680;2023-04-24T04:51:00;9.00;;;5.10;;
57249;SDS011;43102;52.014;-0.680;2023-04-24T04:52:00;9.00;;;5.10;;
57249;SDS011;43102;52.014;-0.680;2023-04-24T04:53:00;9.00;;;5.10;;
57249;SDS011;43102;52.014;-0.680;2023-04-24T04:54:00;9.00;;;5.10;;
57249;SDS011;43102;52.014;-0.680;2023-04-24T04:55:00;9.00;;;5.10;;
57249;SDS011;43102;52.014;-0.680;2023-04-24T04:56:00;9.00;;;5.10;;
57249;SDS011;43102;52.014;-0.680;2023-04-24T04:57:01;9.00;;;5.10;;
57249;SDS011;43102;52.014;-0.680;2023-04-24T04:58:00;9.00;;;5.10;;
57249;SDS011;43102;52.014;-0.680;2023-04-24T04:59:00;9.00;;;5.10;;
57249;SDS011;43102;52.014;-0.680;2023-04-24T05:00:00;9.00;;;5.10;;
57249;SDS011;43102;52.014;-0.680;2023-04-24T05:01:00;9.00;;;5.10;;
57249;SDS011;43102;52.014;-0.680;2023-04-24T05:02:00;9.00;;;5.10;;
57249;SDS011;43102;52.014;-0.680;2023-04-24T05:03:10;9.00;;;5.10;;
57249;SDS011;43102;52.014;-0.680;2023-04-24T05:04:00;9.00;;;5.10;;
57249;SDS011;43102;52.014;-0.680;2023-04-24T05:05:00;9.00;;;5.10;;
57249;SDS011;43102;52.014;-0.680;2023-04-24T05:06:01;9.00;;;5.10;;
57249;SDS011;43102;52.014;-0.680;2023-04-24T05:07:00;9.00;;;5.10;;
57249;SDS011;43102;52.014;-0.680;2023-04-24T05:08:00;9.00;;;5.10;;
57249;SDS011;43102;52.014;-0.680;2023-04-24T05:09:00;9.00;;;5.10;;
57249;SDS011;43102;52.014;-0.680;2023-04-24T05:10:00;9.00;;;5.10;;
57249;SDS011;43102;52.014;-0.680;2023-04-24T05:11:00;9.00;;;5.10;;
57249;SDS011;43102;52.014;-0.680;2023-04-24T05:12:01;9.00;;;5.10;;
57249;SDS011;43102;52.014;-0.680;2023-04-24T05:13:00;9.00;;;5.10;;
57249;SDS011;43102;52.014;-0.680;2023-04-24T05:14:00;9.00;;;5.10;;
57249;SDS011;43102;52.014;-0.680;2023-04-24T05:15:00;9.00;;;5.10;;
57249;SDS011;43102;52.014;-0.680;2023-04-24T05:16:00;9.00;;;5.10;;
57249;SDS011;43102;52.014;-0.680;2023-04-24T05:17:00;9.00;;;5.10;;
57249;SDS011;43102;52.014;-0.680;2023-04-24T05:18:00;9.00;;;5.10;;
57249;SDS011;43102;52.014;-0.680;2023-04-24T05:19:00;9.00;;;5.10;;
57249;SDS011;43102;52.014;-0.680;2023-04-24T05:20:00;9.00;;;5.10;;
57249;SDS011;43102;52.014;-0.680;2023-04-24T05:21:01;9.10;;;4.20;;
57249;SDS011;43102;52.014;-0.680;2023-04-24T05:22:03;9.10;;;4.20;;
57249;SDS011;43102;52.014;-0.680;2023-04-24T05:23:00;9.10;;;4.20;;
57249;SDS011;43102;52.014;-0.680;2023-04-24T05:24:00;9.10;;;4.20;;
57249;SDS011;43102;52.014;-0.680;2023-04-24T05:25:00;9.10;;;4.20;;
57249;SDS011;43102;52.014;-0.680;2023-04-24T05:26:00;9.10;;;4.20;;
57249;SDS011;43102;52.014;-0.680;2023-04-24T05:27:00;9.10;;;4.20;;
57249;SDS011;43102;52.014;-0.680;2023-04-24T05:28:00;9.10;;;4.20;;
57249;SDS011;43102;52.014;-0.680;2023-04-24T05:29:00;9.10;;;4.20;;
57249;SDS011;43102;52.014;-0.680;2023-04-24T05:30:00;9.10;;;4.20;;
57249;SDS011;43102;52.014;-0.680;2023-04-24T05:31:01;9.10;;;4.20;;
57249;SDS011;43102;52.014;-0.680;2023-04-24T05:32:00;9.10;;;4.20;;
57249;SDS011;43102;52.014;-0.680;2023-04-24T05:33:02;9.10;;;4.20;;
57249;SDS011;43102;52.014;-0.680;2023-04-24T05:34:00;9.10;;;4.20;;
57249;SDS011;43102;52.014;-0.680;2023-04-24T05:35:00;9.10;;;4.20;;
57249;SDS011;43102;52.014;-0.680;2023-04-24T05:36:00;9.10;;;4.20;;
57249;SDS011;43102;52.014;-0.680;2023-04-24T05:37:00;9.10;;;4.20;;
57249;SDS011;43102;52.014;-0.680;2023-04-24T05:38:00;9.10;;;4.20;;
57249;SDS011;43102;52.014;-0.680;2023-04-24T05:39:00;9.10;;;4.20;;
57249;SDS011;43102;52.014;-0.680;2023-04-24T05:40:00;9.10;;;4.20;;
57249;SDS011;43102;52.014;-0.680;2023-04-24T05:41:00;9.10;;;4.20;;
57249;SDS011;43102;52.014;-0.680;2023-04-24T05:42:01;9.10;;;4.20;;
57249;SDS011;43102;52.014;-0.680;2023-04-24T05:43:00;9.10;;;4.20;;
57249;SDS011;43102;52.014;-0.680;2023-04-24T05:44:00;9.10;;;4.20;;
57249;SDS011;43102;52.014;-0.680;2023-04-24T05:45:00;9.10;;;4.20;;
57249;SDS011;43102;52.014;-0.680;2023-04-24T05:46:00;9.10;;;4.20;;
57249;SDS011;43102;52.014;-0.680;2023-04-24T05:47:00;9.10;;;4.20;;
57249;SDS011;43102;52.014;-0.680;2023-04-24T05:48:00;9.10;;;4.20;;
57249;SDS011;43102;52.014;-0.680;2023-04-24T05:49:00;9.10;;;4.20;;
57249;SDS011;43102;52.014;-0.680;2023-04-24T05:50:00;9.10;;;4.20;;
57249;SDS011;43102;52.014;-0.680;2023-04-24T05:51:00;8.10;;;4.10;;